createdAt,value
2017-11-13T00:00:34.151Z,79.30
2017-11-13T00:03:02.531Z,79.10
2017-11-13T00:05:30.998Z,79.20
2017-11-13T00:07:59.371Z,80.00
2017-11-13T00:10:27.042Z,79.20
2017-11-13T00:12:55.406Z,79.20
2017-11-13T00:15:23.903Z,79.30
2017-11-13T00:17:52.284Z,79.90
2017-11-13T00:20:20.675Z,80.20
2017-11-13T00:22:49.031Z,79.40
2017-11-13T00:25:16.702Z,79.40
2017-11-13T00:27:45.335Z,79.60
2017-11-13T00:30:12.934Z,79.60
2017-11-13T00:32:40.610Z,79.60
2017-11-13T00:35:08.989Z,79.60
2017-11-13T00:37:37.485Z,79.70
2017-11-13T00:40:05.846Z,79.70
2017-11-13T00:42:34.343Z,79.70
2017-11-13T00:45:02.827Z,79.60
2017-11-13T00:47:31.218Z,79.70
2017-11-13T00:49:59.688Z,79.60
2017-11-13T00:52:28.070Z,79.60
2017-11-13T00:54:56.546Z,79.60
2017-11-13T00:57:25.026Z,80.40
2017-11-13T00:59:54.226Z,79.60
2017-11-13T01:02:22.710Z,79.00
2017-11-13T01:04:51.070Z,79.80
2017-11-13T01:07:18.675Z,79.50
2017-11-13T01:09:46.310Z,79.50
2017-11-13T01:12:14.695Z,79.50
2017-11-13T01:14:43.086Z,79.50
2017-11-13T01:17:11.551Z,79.20
2017-11-13T01:19:40.039Z,78.50
2017-11-13T01:22:08.406Z,79.80
2017-11-13T01:24:36.083Z,79.10
2017-11-13T01:27:04.576Z,79.20
2017-11-13T01:29:33.037Z,79.20
2017-11-13T01:32:01.399Z,79.20
2017-11-13T01:34:29.086Z,79.10
2017-11-13T01:36:57.451Z,79.10
2017-11-13T01:39:25.080Z,79.00
2017-11-13T01:41:52.682Z,78.90
2017-11-13T01:44:21.175Z,79.00
2017-11-13T01:46:49.534Z,79.00
2017-11-13T01:49:17.146Z,78.90
2017-11-13T01:51:44.735Z,78.80
2017-11-13T01:54:12.355Z,78.90
2017-11-13T01:56:40.734Z,79.20
2017-11-13T01:59:09.200Z,79.20
2017-11-13T02:01:36.794Z,79.20
2017-11-13T02:04:04.386Z,79.20
2017-11-13T02:06:31.998Z,79.30
2017-11-13T02:09:00.467Z,79.40
2017-11-13T02:11:28.854Z,79.70
2017-11-13T02:13:57.210Z,79.60
2017-11-13T02:16:24.831Z,79.50
2017-11-13T02:18:52.431Z,79.50
2017-11-13T02:21:20.111Z,79.60
2017-11-13T02:23:47.711Z,79.70
2017-11-13T02:26:15.439Z,79.70
2017-11-13T02:28:43.799Z,79.60
2017-11-13T02:31:11.479Z,79.60
2017-11-13T02:33:39.841Z,79.50
2017-11-13T02:36:07.478Z,79.50
2017-11-13T02:38:35.066Z,79.30
2017-11-13T02:41:02.737Z,79.30
2017-11-13T02:43:31.127Z,79.50
2017-11-13T02:45:59.481Z,79.60
2017-11-13T02:48:27.166Z,79.50
2017-11-13T02:50:55.539Z,79.40
2017-11-13T02:53:23.919Z,79.40
2017-11-13T02:55:53.024Z,79.30
2017-11-13T02:58:21.409Z,79.30
2017-11-13T03:00:49.888Z,79.20
2017-11-13T03:03:19.003Z,79.30
2017-11-13T03:05:47.362Z,79.30
2017-11-13T03:08:15.728Z,79.10
2017-11-13T03:10:43.404Z,79.10
2017-11-13T03:13:11.073Z,78.80
2017-11-13T03:15:39.450Z,78.60
2017-11-13T03:18:07.933Z,79.00
2017-11-13T03:20:37.034Z,78.80
2017-11-13T03:23:05.409Z,78.90
2017-11-13T03:25:34.522Z,79.00
2017-11-13T03:28:02.901Z,79.10
2017-11-13T03:30:31.256Z,79.00
2017-11-13T03:32:59.618Z,79.20
2017-11-13T03:35:27.239Z,79.20
2017-11-13T03:37:54.871Z,79.10
2017-11-13T03:40:23.341Z,79.20
2017-11-13T03:42:50.937Z,79.20
2017-11-13T03:45:18.565Z,79.20
2017-11-13T03:47:47.775Z,79.30
2017-11-13T03:50:16.162Z,79.30
2017-11-13T03:52:44.635Z,79.20
2017-11-13T03:55:13.022Z,79.20
2017-11-13T03:57:41.499Z,79.10
2017-11-13T04:00:09.882Z,79.80
2017-11-13T04:02:38.260Z,78.80
2017-11-13T04:05:06.637Z,78.70
2017-11-13T04:07:34.304Z,78.60
2017-11-13T04:10:02.715Z,78.60
2017-11-13T04:12:30.311Z,79.40
2017-11-13T04:14:57.923Z,78.50
2017-11-13T04:17:26.302Z,78.40
2017-11-13T04:19:54.668Z,78.40
2017-11-13T04:22:23.063Z,78.50
2017-11-13T04:24:50.665Z,78.50
2017-11-13T04:27:18.278Z,78.50
2017-11-13T04:29:46.746Z,78.70
2017-11-13T04:32:15.132Z,78.90
2017-11-13T04:34:43.603Z,78.90
2017-11-13T04:37:11.265Z,78.90
2017-11-13T04:39:38.866Z,79.10
2017-11-13T04:42:06.482Z,79.20
2017-11-13T04:44:34.094Z,79.40
2017-11-13T04:47:01.821Z,79.40
2017-11-13T04:49:30.207Z,80.20
2017-11-13T04:51:58.694Z,79.40
2017-11-13T04:54:27.072Z,79.40
2017-11-13T04:56:55.442Z,79.40
2017-11-13T04:59:24.576Z,79.50
2017-11-13T05:01:52.170Z,79.40
2017-11-13T05:04:19.793Z,79.40
2017-11-13T05:06:47.431Z,79.50
2017-11-13T05:09:15.822Z,79.80
2017-11-13T05:11:44.191Z,79.90
2017-11-13T05:14:12.674Z,79.90
2017-11-13T05:16:41.042Z,80.10
2017-11-13T05:19:08.663Z,80.00
2017-11-13T05:21:36.266Z,80.40
2017-11-13T05:24:03.877Z,80.80
2017-11-13T05:26:31.474Z,81.20
2017-11-13T05:28:59.153Z,81.50
2017-11-13T05:31:26.741Z,81.70
2017-11-13T05:33:55.200Z,82.30
2017-11-13T05:36:23.582Z,82.30
2017-11-13T05:38:51.946Z,82.60
2017-11-13T05:41:19.683Z,82.50
2017-11-13T05:43:47.269Z,82.80
2017-11-13T05:46:14.927Z,83.00
2017-11-13T05:48:42.529Z,83.20
2017-11-13T05:51:10.915Z,83.30
2017-11-13T05:53:38.544Z,83.30
2017-11-13T05:56:06.212Z,83.50
2017-11-13T05:58:33.807Z,83.50
2017-11-13T06:01:01.551Z,83.70
2017-11-13T06:03:29.919Z,83.70
2017-11-13T06:05:58.402Z,83.60
2017-11-13T06:08:26.003Z,83.60
2017-11-13T06:10:53.623Z,83.70
2017-11-13T06:13:21.225Z,83.60
2017-11-13T06:15:48.837Z,83.90
2017-11-13T06:18:17.196Z,83.70
2017-11-13T06:20:44.818Z,83.70
2017-11-13T06:23:12.411Z,83.80
2017-11-13T06:25:40.076Z,83.80
2017-11-13T06:28:07.778Z,83.90
2017-11-13T06:30:36.273Z,83.80
2017-11-13T06:33:04.674Z,83.70
2017-11-13T06:35:32.302Z,83.60
2017-11-13T06:37:59.926Z,83.50
2017-11-13T06:40:27.530Z,83.40
2017-11-13T06:42:55.912Z,83.50
2017-11-13T06:45:24.385Z,83.30
2017-11-13T06:47:52.012Z,83.20
2017-11-13T06:50:19.722Z,83.00
2017-11-13T06:52:48.202Z,82.80
2017-11-13T06:55:16.586Z,82.80
2017-11-13T06:57:45.056Z,82.60
2017-11-13T07:00:12.641Z,82.50
2017-11-13T07:02:41.029Z,82.30
2017-11-13T07:05:08.623Z,82.20
2017-11-13T07:07:36.243Z,82.00
2017-11-13T07:10:04.701Z,81.80
2017-11-13T07:12:32.328Z,81.80
2017-11-13T07:14:59.926Z,81.60
2017-11-13T07:17:27.547Z,81.40
2017-11-13T07:19:55.137Z,81.40
2017-11-13T07:22:22.744Z,81.40
2017-11-13T07:24:50.378Z,81.40
2017-11-13T07:27:18.756Z,81.30
2017-11-13T07:29:47.893Z,82.10
2017-11-13T07:32:15.481Z,81.30
2017-11-13T07:34:43.181Z,81.30
2017-11-13T07:37:11.546Z,80.90
2017-11-13T07:39:39.167Z,80.90
2017-11-13T07:42:06.779Z,81.00
2017-11-13T07:44:35.915Z,80.90
2017-11-13T07:47:03.515Z,80.90
2017-11-13T07:49:31.154Z,80.90
2017-11-13T07:51:58.764Z,81.00
2017-11-13T07:54:27.126Z,81.00
2017-11-13T07:56:54.814Z,81.10
2017-11-13T07:59:23.920Z,81.10
2017-11-13T08:01:52.394Z,81.20
2017-11-13T08:04:20.775Z,81.30
2017-11-13T08:06:49.250Z,82.10
2017-11-13T08:09:17.614Z,81.50
2017-11-13T08:11:45.230Z,81.30
2017-11-13T08:14:12.826Z,81.60
2017-11-13T08:16:40.452Z,81.60
2017-11-13T08:19:08.049Z,81.60
2017-11-13T08:21:35.678Z,81.20
2017-11-13T08:24:03.275Z,80.70
2017-11-13T08:26:30.902Z,80.60
2017-11-13T08:28:58.506Z,80.40
2017-11-13T08:31:26.143Z,80.30
2017-11-13T08:33:53.731Z,80.30
2017-11-13T08:36:21.342Z,80.50
2017-11-13T08:38:48.955Z,80.50
2017-11-13T08:41:16.554Z,80.70
2017-11-13T08:43:44.938Z,81.10
2017-11-13T08:46:13.298Z,80.80
2017-11-13T08:48:41.687Z,81.90
2017-11-13T08:51:10.159Z,81.30
2017-11-13T08:53:38.543Z,81.40
2017-11-13T08:56:06.901Z,81.40
2017-11-13T08:58:34.521Z,81.30
2017-11-13T09:01:02.118Z,81.30
2017-11-13T09:03:29.729Z,81.30
2017-11-13T09:05:57.375Z,81.00
2017-11-13T09:08:25.762Z,81.50
2017-11-13T09:10:54.114Z,81.70
2017-11-13T09:13:21.790Z,81.70
2017-11-13T09:15:50.166Z,82.10
2017-11-13T09:18:18.532Z,81.30
2017-11-13T09:20:46.270Z,81.30
2017-11-13T09:23:13.869Z,80.90
2017-11-13T09:25:42.237Z,80.60
2017-11-13T09:28:09.915Z,80.60
2017-11-13T09:30:39.042Z,80.30
2017-11-13T09:33:06.632Z,80.30
2017-11-13T09:35:34.331Z,80.40
2017-11-13T09:38:03.428Z,80.00
2017-11-13T09:40:31.797Z,80.00
2017-11-13T09:42:59.387Z,80.00
2017-11-13T09:45:27.772Z,79.60
2017-11-13T09:47:56.125Z,79.10
2017-11-13T09:50:25.238Z,79.10
2017-11-13T09:52:53.610Z,78.70
2017-11-13T09:55:22.010Z,78.40
2017-11-13T09:57:50.369Z,78.20
2017-11-13T10:00:17.950Z,78.20
2017-11-13T10:02:46.410Z,77.80
2017-11-13T10:05:14.762Z,77.70
2017-11-13T10:07:42.414Z,77.70
2017-11-13T10:10:10.010Z,77.70
2017-11-13T10:12:38.505Z,77.90
2017-11-13T10:15:06.857Z,78.00
2017-11-13T10:17:34.537Z,78.00
2017-11-13T10:20:02.122Z,77.90
2017-11-13T10:22:30.494Z,77.40
2017-11-13T10:24:58.841Z,77.40
2017-11-13T10:27:26.458Z,77.40
2017-11-13T10:29:54.054Z,77.50
2017-11-13T10:32:21.752Z,77.90
2017-11-13T10:34:49.338Z,77.90
2017-11-13T10:37:16.975Z,78.00
2017-11-13T10:39:45.335Z,77.60
2017-11-13T10:42:13.018Z,78.00
2017-11-13T10:44:40.740Z,78.20
2017-11-13T10:47:08.403Z,78.30
2017-11-13T10:49:36.106Z,78.40
2017-11-13T10:52:03.761Z,77.80
2017-11-13T10:54:32.886Z,78.20
2017-11-13T10:57:01.239Z,77.90
2017-11-13T10:59:28.856Z,78.00
2017-11-13T11:01:56.457Z,77.20
2017-11-13T11:04:24.829Z,77.50
2017-11-13T11:06:52.414Z,76.70
2017-11-13T11:09:20.033Z,77.00
2017-11-13T11:11:47.613Z,76.70
2017-11-13T11:17:19.711Z,75.90
2017-11-13T11:19:48.758Z,76.20
2017-11-13T11:22:17.146Z,76.40
2017-11-13T11:24:44.758Z,76.20
2017-11-13T11:27:18.111Z,75.70
2017-11-13T11:32:55.613Z,74.90
2017-11-13T11:35:33.124Z,74.00
2017-11-13T11:38:00.716Z,74.00
2017-11-13T11:40:39.169Z,74.60
2017-11-13T11:43:07.533Z,74.30
2017-11-13T11:45:35.911Z,74.70
2017-11-13T11:51:10.127Z,74.00
2017-11-13T11:53:40.214Z,74.00
2017-11-13T11:56:13.479Z,73.90
2017-11-13T11:58:41.076Z,72.70
2017-11-13T12:01:08.687Z,70.80
2017-11-13T12:03:37.038Z,70.20
2017-11-13T12:06:04.654Z,70.10
2017-11-13T12:08:32.249Z,70.60
2017-11-13T12:10:59.861Z,69.90
2017-11-13T12:13:28.222Z,69.60
2017-11-13T12:15:55.871Z,69.60
2017-11-13T12:18:23.462Z,66.70
2017-11-13T12:20:51.822Z,65.80
2017-11-13T12:23:19.442Z,65.80
2017-11-13T12:25:47.032Z,64.70
2017-11-13T12:28:14.718Z,65.40
2017-11-13T12:30:43.090Z,64.20
2017-11-13T12:33:10.762Z,63.50
2017-11-13T12:35:39.122Z,64.90
2017-11-13T12:38:08.259Z,64.00
2017-11-13T12:40:36.634Z,63.90
2017-11-13T12:43:05.093Z,64.20
2017-11-13T12:45:32.770Z,64.20
2017-11-13T12:48:01.169Z,63.40
2017-11-13T12:50:28.762Z,63.30
2017-11-13T12:52:56.395Z,62.90
2017-11-13T12:55:23.999Z,63.90
2017-11-13T12:57:51.593Z,63.10
2017-11-13T13:00:20.075Z,62.60
2017-11-13T13:02:48.447Z,62.80
2017-11-13T13:05:16.114Z,62.80
2017-11-13T13:07:44.490Z,64.20
2017-11-13T13:10:12.154Z,64.20
2017-11-13T13:12:39.746Z,63.70
2017-11-13T13:15:07.358Z,63.60
2017-11-13T13:17:35.038Z,63.90
2017-11-13T13:20:02.649Z,63.60
2017-11-13T13:22:30.248Z,63.10
2017-11-13T13:24:57.863Z,63.20
2017-11-13T13:27:25.449Z,63.60
2017-11-13T13:29:53.066Z,64.00
2017-11-13T13:32:21.417Z,65.90
2017-11-13T13:34:49.798Z,66.00
2017-11-13T13:37:18.152Z,66.40
2017-11-13T13:39:45.749Z,66.40
2017-11-13T13:42:19.198Z,66.80
2017-11-13T13:44:46.789Z,67.00
2017-11-13T13:47:14.471Z,67.20
2017-11-13T13:49:42.062Z,67.10
2017-11-13T13:52:09.681Z,67.20
2017-11-13T13:54:37.264Z,67.00
2017-11-13T13:57:05.737Z,68.50
2017-11-13T13:59:33.338Z,68.60
2017-11-13T14:02:00.957Z,67.30
2017-11-13T14:04:28.541Z,65.60
2017-11-13T14:06:56.923Z,65.00
2017-11-13T14:09:25.279Z,64.80
2017-11-13T14:11:52.890Z,64.80
2017-11-13T14:14:20.568Z,64.60
2017-11-13T14:16:48.182Z,64.90
2017-11-13T14:19:16.534Z,64.90
2017-11-13T14:24:20.812Z,64.90
2017-11-13T14:26:48.439Z,65.20
2017-11-13T14:29:16.796Z,63.80
2017-11-13T14:31:44.386Z,63.90
2017-11-13T14:34:12.010Z,63.30
2017-11-13T14:36:39.614Z,63.70
2017-11-13T14:39:07.279Z,63.70
2017-11-13T14:41:35.642Z,64.10
2017-11-13T14:44:04.026Z,63.90
2017-11-13T14:46:32.378Z,64.50
2017-11-13T14:48:59.989Z,64.50
2017-11-13T14:51:28.340Z,65.40
2017-11-13T14:53:56.430Z,65.30
2017-11-13T14:56:24.022Z,66.00
2017-11-13T14:58:51.658Z,66.50
2017-11-13T15:01:20.024Z,67.00
2017-11-13T15:03:47.640Z,66.80
2017-11-13T15:06:15.255Z,67.40
2017-11-13T15:08:44.516Z,67.90
2017-11-13T15:11:12.101Z,67.90
2017-11-13T15:13:39.784Z,68.30
2017-11-13T15:16:07.396Z,68.20
2017-11-13T15:18:34.995Z,68.20
2017-11-13T15:21:03.370Z,68.70
2017-11-13T15:23:31.009Z,68.60
2017-11-13T15:25:58.644Z,68.90
2017-11-13T15:28:26.287Z,68.90
2017-11-13T15:30:54.661Z,69.00
2017-11-13T15:33:23.017Z,69.00
2017-11-13T15:35:50.634Z,69.00
2017-11-13T15:38:18.217Z,69.00
2017-11-13T15:40:45.834Z,69.00
2017-11-13T15:43:14.190Z,69.10
2017-11-13T15:45:43.310Z,69.50
2017-11-13T15:48:11.666Z,69.20
2017-11-13T15:50:39.339Z,69.10
2017-11-13T15:53:07.000Z,69.20
2017-11-13T15:55:36.202Z,69.20
2017-11-13T15:58:04.584Z,69.50
2017-11-13T16:00:32.947Z,69.30
2017-11-13T16:03:00.554Z,69.30
2017-11-13T16:05:28.147Z,69.30
2017-11-13T16:07:55.850Z,69.10
2017-11-13T16:10:24.203Z,69.20
2017-11-13T16:12:51.816Z,69.20
2017-11-13T16:15:19.451Z,69.10
2017-11-13T16:17:47.842Z,69.30
2017-11-13T16:20:16.187Z,69.10
2017-11-13T16:22:43.871Z,69.00
2017-11-13T16:25:12.253Z,69.30
2017-11-13T16:27:40.735Z,69.30
2017-11-13T16:30:09.103Z,68.90
2017-11-13T16:32:36.774Z,68.90
2017-11-13T16:35:04.374Z,68.90
2017-11-13T16:37:31.980Z,68.90
2017-11-13T16:39:59.579Z,68.80
2017-11-13T16:42:27.202Z,68.80
2017-11-13T16:44:54.798Z,68.60
2017-11-13T16:47:23.224Z,69.00
2017-11-13T16:49:51.363Z,68.90
2017-11-13T16:52:18.979Z,69.20
2017-11-13T16:54:46.671Z,69.50
2017-11-13T16:57:15.136Z,70.00
2017-11-13T16:59:42.725Z,70.00
2017-11-13T17:02:11.082Z,70.80
2017-11-13T17:04:38.694Z,70.80
2017-11-13T17:07:06.289Z,71.10
2017-11-13T17:09:33.909Z,71.20
2017-11-13T17:12:01.507Z,71.10
2017-11-13T17:14:29.194Z,70.80
2017-11-13T17:16:56.790Z,70.50
2017-11-13T17:19:24.417Z,70.70
2017-11-13T17:21:52.091Z,70.40
2017-11-13T17:24:20.478Z,70.30
2017-11-13T17:26:48.833Z,70.30
2017-11-13T17:29:16.452Z,70.20
2017-11-13T17:31:44.046Z,70.20
2017-11-13T17:34:11.720Z,70.10
2017-11-13T17:36:39.372Z,70.00
2017-11-13T17:39:07.063Z,69.80
2017-11-13T17:41:35.447Z,69.70
2017-11-13T17:44:03.921Z,69.70
2017-11-13T17:46:31.509Z,69.60
2017-11-13T17:48:59.100Z,69.60
2017-11-13T17:51:26.723Z,69.60
2017-11-13T17:53:55.078Z,69.70
2017-11-13T17:56:22.761Z,69.60
2017-11-13T17:58:51.227Z,69.90
2017-11-13T18:01:18.841Z,69.90
2017-11-13T18:03:46.458Z,70.20
2017-11-13T18:06:14.926Z,70.80
2017-11-13T18:08:42.533Z,70.80
2017-11-13T18:11:10.159Z,71.00
2017-11-13T18:13:37.768Z,71.20
2017-11-13T18:16:05.425Z,71.50
2017-11-13T18:18:33.033Z,71.60
2017-11-13T18:21:00.629Z,71.80
2017-11-13T18:23:29.010Z,72.20
2017-11-13T18:25:56.597Z,72.20
2017-11-13T18:28:24.219Z,72.30
2017-11-13T18:30:52.577Z,72.40
2017-11-13T18:33:20.194Z,72.40
2017-11-13T18:35:47.790Z,72.50
2017-11-13T18:38:15.490Z,72.70
2017-11-13T18:40:43.860Z,72.70
2017-11-13T18:43:12.251Z,72.60
2017-11-13T18:45:40.718Z,72.40
2017-11-13T18:48:08.309Z,72.40
2017-11-13T18:50:35.917Z,72.30
2017-11-13T18:53:03.509Z,72.10
2017-11-13T18:55:31.898Z,71.90
2017-11-13T18:58:00.367Z,71.90
2017-11-13T19:00:28.770Z,72.00
2017-11-13T19:02:56.405Z,72.00
2017-11-13T19:05:24.072Z,72.20
2017-11-13T19:07:51.679Z,72.40
2017-11-13T19:10:19.392Z,72.60
2017-11-13T19:12:46.999Z,72.50
2017-11-13T19:15:14.716Z,72.30
2017-11-13T19:17:43.110Z,72.30
2017-11-13T19:20:11.501Z,72.10
2017-11-13T19:22:39.966Z,71.90
2017-11-13T19:25:07.578Z,71.80
2017-11-13T19:27:35.189Z,71.80
2017-11-13T19:30:04.329Z,71.60
2017-11-13T19:32:31.919Z,71.70
2017-11-13T19:34:59.513Z,71.80
2017-11-13T19:37:27.170Z,71.90
2017-11-13T19:39:54.834Z,72.00
2017-11-13T19:42:22.445Z,72.00
2017-11-13T19:44:50.045Z,72.70
2017-11-13T19:47:17.652Z,72.20
2017-11-13T19:49:45.250Z,72.20
2017-11-13T19:52:12.951Z,72.40
2017-11-13T19:54:41.311Z,72.50
2017-11-13T19:57:08.950Z,72.50
2017-11-13T19:59:36.650Z,72.60
2017-11-13T20:02:04.314Z,72.80
2017-11-13T20:04:31.977Z,73.40
2017-11-13T20:06:59.562Z,72.80
2017-11-13T20:09:27.951Z,73.20
2017-11-13T20:11:55.543Z,73.20
2017-11-13T20:14:23.161Z,73.20
2017-11-13T20:16:51.512Z,73.30
2017-11-13T20:19:19.888Z,74.10
2017-11-13T20:21:47.485Z,73.40
2017-11-13T20:24:15.861Z,73.30
2017-11-13T20:26:44.323Z,73.30
2017-11-13T20:29:12.055Z,73.20
2017-11-13T20:31:39.649Z,73.40
2017-11-13T20:34:08.130Z,73.80
2017-11-13T20:36:36.491Z,73.40
2017-11-13T20:39:04.112Z,73.40
2017-11-13T20:41:31.733Z,73.30
2017-11-13T20:44:00.866Z,73.10
2017-11-13T20:46:28.486Z,73.10
2017-11-13T20:48:56.081Z,73.00
2017-11-13T20:51:24.546Z,73.40
2017-11-13T20:53:52.911Z,73.60
2017-11-13T20:56:20.529Z,73.60
2017-11-13T20:58:48.123Z,73.70
2017-11-13T21:01:15.738Z,73.70
2017-11-13T21:03:43.330Z,73.60
2017-11-13T21:06:11.038Z,73.50
2017-11-13T21:08:39.510Z,73.40
2017-11-13T21:11:07.178Z,73.40
2017-11-13T21:13:34.769Z,73.20
2017-11-13T21:16:02.381Z,73.10
2017-11-13T21:18:29.964Z,73.00
2017-11-13T21:20:57.571Z,73.00
2017-11-13T21:23:25.184Z,73.20
2017-11-13T21:25:52.854Z,72.80
2017-11-13T21:28:21.341Z,73.00
2017-11-13T21:30:49.813Z,73.00
2017-11-13T21:33:17.409Z,72.90
2017-11-13T21:35:45.042Z,73.00
2017-11-13T21:38:13.523Z,73.20
2017-11-13T21:40:41.999Z,73.00
2017-11-13T21:43:10.491Z,72.90
2017-11-13T21:45:38.861Z,72.80
2017-11-13T21:48:06.526Z,72.80
2017-11-13T21:50:34.184Z,73.30
2017-11-13T21:53:01.803Z,73.10
2017-11-13T21:55:29.414Z,73.00
2017-11-13T21:57:57.030Z,73.00
2017-11-13T22:00:24.646Z,72.90
2017-11-13T22:02:53.124Z,73.00
2017-11-13T22:05:20.717Z,73.00
2017-11-13T22:07:48.337Z,73.20
2017-11-13T22:10:15.921Z,73.20
2017-11-13T22:12:44.384Z,73.30
2017-11-13T22:15:12.055Z,73.20
2017-11-13T22:17:40.429Z,73.60
2017-11-13T22:20:08.042Z,73.60
2017-11-13T22:22:35.648Z,73.60
2017-11-13T22:25:04.049Z,73.60
2017-11-13T22:27:32.517Z,73.70
2017-11-13T22:30:00.183Z,73.70
2017-11-13T22:32:27.805Z,73.80
2017-11-13T22:34:55.446Z,73.80
2017-11-13T22:37:23.042Z,73.80
2017-11-13T22:39:50.665Z,73.70
2017-11-13T22:42:18.290Z,73.70
2017-11-13T22:44:45.952Z,73.70
2017-11-13T22:47:13.545Z,73.70
2017-11-13T22:49:41.181Z,73.60
2017-11-13T22:52:09.563Z,73.90
2017-11-13T22:54:37.213Z,73.90
2017-11-13T22:57:05.710Z,74.10
2017-11-13T22:59:33.374Z,74.00
2017-11-13T23:02:01.750Z,75.30
2017-11-13T23:04:30.225Z,74.90
2017-11-13T23:06:57.840Z,74.90
2017-11-13T23:09:25.471Z,75.20
2017-11-13T23:11:53.101Z,75.40
2017-11-13T23:14:21.477Z,75.70
2017-11-13T23:16:49.101Z,75.70
2017-11-13T23:19:16.717Z,76.10
2017-11-13T23:21:45.198Z,75.70
2017-11-13T23:24:13.685Z,75.60
2017-11-13T23:26:42.165Z,75.40
2017-11-13T23:29:09.761Z,75.40
2017-11-13T23:31:37.484Z,75.70
2017-11-13T23:34:05.973Z,75.30
2017-11-13T23:36:34.372Z,75.00
2017-11-13T23:39:01.982Z,74.90
2017-11-13T23:41:30.422Z,75.00
2017-11-13T23:43:58.041Z,74.90
2017-11-13T23:46:25.653Z,75.10
2017-11-13T23:48:53.385Z,75.10
2017-11-13T23:51:21.760Z,75.00
2017-11-13T23:53:50.250Z,75.00
2017-11-13T23:56:17.875Z,75.00
2017-11-13T23:58:45.505Z,74.90
